Time;durP1;ratioP1;P1;durP2;ratioP2;P2;SDS_P1;SDS_P2;PMS_P1;PMS_P2;Temp;Humidity;BMP_temperature;BMP_pressure;BME280_temperature;BME280_humidity;BME280_pressure;Samples;Min_cycle;Max_cycle;Signal;HPM_P1;HPM_P2
2022/12/02 00:00:28;;;;;;;70.10;24.02;;;5.70;69.30;;;;;;2320077;58;21128;-52
2022/12/02 00:02:57;;;;;;;61.75;23.38;;;5.70;69.30;;;;;;2319839;58;21120;-52
2022/12/02 00:05:29;;;;;;;69.15;24.95;;;5.70;69.60;;;;;;2318901;58;21041;-50
2022/12/02 00:07:59;;;;;;;68.93;23.45;;;5.70;69.70;;;;;;2319273;58;21040;-52
2022/12/02 00:10:29;;;;;;;75.37;24.10;;;5.70;69.60;;;;;;2319142;58;21603;-53
2022/12/02 00:13:01;;;;;;;75.82;26.98;;;5.80;69.80;;;;;;2318332;58;21087;-52
2022/12/02 00:15:41;;;;;;;71.10;26.50;;;5.80;69.60;;;;;;2319049;58;21048;-52
2022/12/02 00:18:09;;;;;;;71.40;26.30;;;5.80;69.80;;;;;;2319506;58;21056;-50
2022/12/02 00:20:37;;;;;;;71.95;24.77;;;5.80;69.70;;;;;;2318646;58;21200;-50
2022/12/02 00:23:04;;;;;;;82.07;29.63;;;5.80;69.60;;;;;;2320358;58;21111;-49
2022/12/02 00:25:32;;;;;;;81.90;27.55;;;5.80;69.60;;;;;;2320348;58;21505;-52
2022/12/02 00:28:00;;;;;;;78.40;27.42;;;5.80;69.60;;;;;;2320020;58;21580;-53
2022/12/02 00:30:27;;;;;;;79.30;27.80;;;5.80;69.60;;;;;;2319180;58;21059;-51
2022/12/02 00:32:54;;;;;;;78.80;28.70;;;5.80;69.80;;;;;;2319714;58;21143;-50
2022/12/02 00:35:23;;;;;;;90.40;31.42;;;5.90;69.90;;;;;;2319008;58;21032;-53
2022/12/02 00:37:50;;;;;;;92.07;30.15;;;5.80;69.80;;;;;;2319179;58;21049;-52
2022/12/02 00:40:18;;;;;;;85.38;30.85;;;5.80;70.60;;;;;;2318958;58;21634;-49
2022/12/02 00:42:45;;;;;;;82.70;28.48;;;5.80;69.80;;;;;;2318807;58;21056;-52
2022/12/02 00:47:59;;;;;;;97.85;33.95;;;5.80;69.80;;;;;;2318245;58;21004;-52
2022/12/02 00:50:26;;;;;;;83.30;30.02;;;5.80;69.60;;;;;;2319517;58;21527;-50
2022/12/02 00:52:54;;;;;;;83.07;29.67;;;5.80;69.60;;;;;;2319923;58;21555;-53
2022/12/02 00:55:21;;;;;;;75.45;30.02;;;5.80;70.10;;;;;;2319772;58;21551;-52
2022/12/02 00:57:48;;;;;;;81.63;30.80;;;5.80;69.90;;;;;;2319082;58;21581;-53
2022/12/02 01:00:17;;;;;;;83.30;29.85;;;5.80;69.80;;;;;;2318778;58;21119;-52
2022/12/02 01:02:44;;;;;;;76.87;28.35;;;5.80;69.80;;;;;;2319309;58;21535;-52
2022/12/02 01:05:11;;;;;;;78.25;28.73;;;5.70;69.70;;;;;;2317545;58;21584;-52
2022/12/02 01:07:38;;;;;;;78.12;28.60;;;5.80;70.40;;;;;;2319060;58;21060;-53
2022/12/02 01:10:08;;;;;;;82.43;29.92;;;5.80;69.60;;;;;;2318953;58;21044;-51
2022/12/02 01:12:35;;;;;;;75.75;28.90;;;5.80;69.60;;;;;;2319268;58;21195;-53
2022/12/02 01:15:03;;;;;;;77.32;28.85;;;5.80;69.70;;;;;;2319196;58;20993;-50
2022/12/02 01:17:30;;;;;;;72.37;28.75;;;5.70;69.60;;;;;;2320058;58;21540;-51
2022/12/02 01:19:57;;;;;;;73.35;27.00;;;5.80;69.80;;;;;;2319976;58;21079;-53
2022/12/02 01:22:24;;;;;;;74.15;28.08;;;5.80;69.90;;;;;;2319020;58;21509;-53
2022/12/02 01:24:51;;;;;;;73.37;28.90;;;5.80;70.70;;;;;;2318242;58;21048;-53
2022/12/02 01:27:18;;;;;;;75.15;28.58;;;5.80;69.80;;;;;;2318698;58;21071;-52
2022/12/02 01:29:45;;;;;;;76.12;28.42;;;5.80;69.80;;;;;;2318682;58;21100;-52
2022/12/02 01:32:13;;;;;;;75.35;30.02;;;5.80;69.80;;;;;;2318723;58;21104;-52
2022/12/02 01:34:41;;;;;;;65.78;27.50;;;5.80;69.80;;;;;;2319062;58;21634;-51
2022/12/02 01:37:08;;;;;;;72.10;30.08;;;5.70;69.60;;;;;;2319106;58;21320;-51
2022/12/02 01:39:35;;;;;;;69.43;27.30;;;5.80;69.80;;;;;;2319232;58;21044;-53
2022/12/02 01:42:03;;;;;;;75.30;28.85;;;5.70;69.90;;;;;;2319641;58;21044;-52
2022/12/02 01:44:31;;;;;;;72.32;29.85;;;5.80;69.90;;;;;;2319529;58;21120;-52
2022/12/02 01:46:58;;;;;;;70.05;28.25;;;5.70;69.80;;;;;;2318822;58;21615;-51
2022/12/02 01:49:26;;;;;;;70.18;27.52;;;5.70;69.70;;;;;;2318485;58;21630;-51
2022/12/02 01:51:53;;;;;;;66.47;27.02;;;5.70;69.70;;;;;;2319174;58;21569;-51
2022/12/02 01:54:20;;;;;;;72.22;28.98;;;5.70;69.90;;;;;;2319337;58;21052;-52
2022/12/02 01:56:48;;;;;;;73.03;29.75;;;5.70;69.90;;;;;;2318074;58;21048;-53
2022/12/02 01:59:16;;;;;;;71.47;28.33;;;5.70;69.80;;;;;;2316381;58;21528;-52
2022/12/02 02:01:43;;;;;;;67.75;28.55;;;5.70;69.80;;;;;;2318725;58;21270;-53
2022/12/02 02:04:11;;;;;;;64.22;27.08;;;5.70;69.80;;;;;;2316942;58;21048;-52
2022/12/02 02:06:41;;;;;;;60.60;27.13;;;5.80;69.90;;;;;;2320316;58;21576;-53
2022/12/02 02:09:10;;;;;;;74.93;30.48;;;5.70;69.90;;;;;;2320365;58;21938;-51
2022/12/02 02:11:39;;;;;;;67.10;28.10;;;5.70;69.90;;;;;;2319987;58;21112;-52
2022/12/02 02:14:10;;;;;;;72.18;31.00;;;5.80;70.00;;;;;;2318856;58;21548;-52
2022/12/02 02:16:38;;;;;;;71.20;29.20;;;5.80;70.70;;;;;;2317858;58;21631;-52
2022/12/02 02:19:09;;;;;;;68.28;27.65;;;5.70;69.90;;;;;;2318975;58;21052;-49
2022/12/02 02:21:41;;;;;;;66.00;28.73;;;5.80;70.10;;;;;;2319166;58;21592;-51
2022/12/02 02:24:09;;;;;;;65.53;27.27;;;5.70;70.10;;;;;;2318228;58;21067;-53
2022/12/02 02:26:36;;;;;;;75.18;30.45;;;5.80;70.20;;;;;;2318958;58;21552;-52
2022/12/02 02:29:03;;;;;;;75.97;30.52;;;5.80;71.10;;;;;;2319152;58;22174;-52
2022/12/02 02:31:30;;;;;;;75.18;30.62;;;5.80;70.20;;;;;;2319668;58;21048;-52
2022/12/02 02:33:57;;;;;;;65.55;28.35;;;5.80;70.30;;;;;;2318317;58;21044;-52
2022/12/02 02:36:25;;;;;;;65.40;25.42;;;5.70;70.30;;;;;;2317142;58;21167;-51
2022/12/02 02:38:53;;;;;;;67.68;27.20;;;5.70;70.50;;;;;;2316605;58;21623;-52
2022/12/02 02:41:20;;;;;;;65.53;26.25;;;5.80;70.60;;;;;;2318522;58;21598;-51
2022/12/02 02:43:48;;;;;;;67.28;27.92;;;5.80;70.60;;;;;;2318538;58;21119;-52
2022/12/02 02:46:15;;;;;;;69.68;29.10;;;5.80;70.70;;;;;;2318958;58;21516;-53
2022/12/02 02:48:43;;;;;;;66.70;28.77;;;5.80;70.80;;;;;;2318318;58;21571;-53
2022/12/02 02:51:11;;;;;;;68.93;28.23;;;5.80;70.70;;;;;;2318782;58;21536;-51
2022/12/02 02:53:39;;;;;;;69.50;29.73;;;5.80;70.80;;;;;;2320366;58;21631;-50
2022/12/02 02:56:08;;;;;;;64.85;26.40;;;5.80;70.90;;;;;;2320147;58;21100;-50
2022/12/02 02:58:36;;;;;;;71.43;27.13;;;5.80;70.90;;;;;;2319719;58;21076;-52
2022/12/02 03:01:07;;;;;;;64.18;26.33;;;5.80;71.80;;;;;;2319592;58;21040;-51
2022/12/02 03:03:37;;;;;;;72.32;28.80;;;5.80;71.10;;;;;;2319672;58;21090;-52
2022/12/02 03:06:08;;;;;;;65.20;28.85;;;5.80;71.10;;;;;;2319250;58;21480;-53
2022/12/02 03:08:38;;;;;;;78.07;31.48;;;5.80;71.10;;;;;;2319082;58;21135;-53
2022/12/02 03:11:06;;;;;;;71.43;29.23;;;5.80;71.10;;;;;;2317717;58;21607;-52
2022/12/02 03:13:36;;;;;;;64.18;27.15;;;5.80;71.20;;;;;;2318784;58;21615;-51
2022/12/02 03:16:07;;;;;;;76.80;30.92;;;5.80;71.20;;;;;;2318107;58;21709;-52
2022/12/02 03:18:36;;;;;;;71.10;29.98;;;5.80;71.20;;;;;;2317255;58;21063;-52
2022/12/02 03:21:04;;;;;;;72.22;28.17;;;5.80;71.20;;;;;;2318346;58;21559;-51
2022/12/02 03:23:32;;;;;;;68.95;29.90;;;5.80;72.00;;;;;;2319641;58;21610;-53
2022/12/02 03:26:00;;;;;;;70.55;29.67;;;5.80;71.20;;;;;;2319169;58;21627;-51
2022/12/02 03:28:28;;;;;;;68.50;27.05;;;5.80;71.20;;;;;;2319213;58;21168;-50
2022/12/02 03:30:55;;;;;;;73.62;31.40;;;5.80;71.40;;;;;;2318814;58;21079;-50
2022/12/02 03:33:23;;;;;;;71.37;30.83;;;5.70;71.40;;;;;;2318673;58;21431;-53
2022/12/02 03:35:50;;;;;;;77.07;32.60;;;5.70;71.50;;;;;;2319131;58;21532;-52
2022/12/02 03:38:17;;;;;;;77.15;29.45;;;5.70;71.50;;;;;;2318805;58;21075;-51
2022/12/02 03:40:45;;;;;;;65.82;27.00;;;5.70;71.50;;;;;;2318634;58;21115;-53
2022/12/02 03:43:13;;;;;;;65.47;27.23;;;5.70;71.60;;;;;;2319520;58;21111;-52
2022/12/02 03:45:42;;;;;;;68.18;29.17;;;5.70;71.70;;;;;;2319186;58;21599;-53
2022/12/02 03:48:10;;;;;;;70.45;27.58;;;5.70;71.80;;;;;;2320338;58;21039;-52
2022/12/02 03:50:38;;;;;;;69.93;29.30;;;5.70;71.90;;;;;;2319748;58;21040;-53
2022/12/02 03:53:06;;;;;;;73.10;28.73;;;5.70;71.90;;;;;;2319777;58;21064;-52
2022/12/02 03:55:34;;;;;;;74.32;30.48;;;5.70;71.90;;;;;;2320312;58;21131;-52
2022/12/02 03:58:04;;;;;;;74.35;31.05;;;5.70;71.80;;;;;;2319977;58;21358;-50
2022/12/02 04:00:31;;;;;;;69.53;29.98;;;5.70;71.80;;;;;;2318530;58;21544;-52
2022/12/02 04:02:59;;;;;;;66.25;28.67;;;5.80;72.70;;;;;;2318633;58;21052;-53
2022/12/02 04:05:26;;;;;;;70.53;29.92;;;5.80;73.60;;;;;;2318841;58;21060;-52
2022/12/02 04:07:53;;;;;;;62.30;26.60;;;5.80;73.30;;;;;;2318836;58;21052;-53
2022/12/02 04:10:20;;;;;;;67.95;28.33;;;5.90;72.90;;;;;;2318406;58;21040;-50
2022/12/02 04:12:47;;;;;;;57.22;24.52;;;5.80;72.50;;;;;;2318327;58;21135;-51
2022/12/02 04:15:14;;;;;;;61.30;26.58;;;5.90;72.30;;;;;;2319605;58;21036;-53
2022/12/02 04:17:42;;;;;;;56.63;25.00;;;5.90;72.20;;;;;;2318967;58;21630;-51
2022/12/02 04:20:11;;;;;;;63.67;26.15;;;5.90;72.20;;;;;;2318982;58;21119;-53
2022/12/02 04:22:39;;;;;;;65.68;26.52;;;5.90;72.00;;;;;;2318629;58;21037;-52
2022/12/02 04:25:07;;;;;;;62.20;28.12;;;5.90;71.90;;;;;;2318866;58;21299;-53
2022/12/02 04:27:34;;;;;;;69.03;28.98;;;5.90;71.90;;;;;;2319370;58;21130;-53
2022/12/02 04:30:01;;;;;;;68.85;28.95;;;5.90;71.80;;;;;;2318074;58;21524;-53
2022/12/02 04:32:28;;;;;;;69.10;28.40;;;5.90;71.80;;;;;;2319181;58;21123;-53
2022/12/02 04:34:55;;;;;;;83.50;32.22;;;5.90;72.50;;;;;;2318894;58;21507;-51
2022/12/02 04:37:22;;;;;;;69.03;30.25;;;5.90;71.70;;;;;;2319280;58;21055;-53
2022/12/02 04:39:49;;;;;;;71.43;30.27;;;5.90;71.70;;;;;;2318522;58;22091;-53
2022/12/02 04:42:17;;;;;;;70.93;30.52;;;5.90;71.60;;;;;;2319165;58;21036;-49
2022/12/02 04:44:44;;;;;;;70.18;28.38;;;5.90;71.60;;;;;;2318826;58;21048;-53
2022/12/02 04:47:11;;;;;;;70.93;27.35;;;5.80;71.60;;;;;;2318640;58;21103;-51
2022/12/02 04:49:38;;;;;;;65.07;29.02;;;5.80;71.60;;;;;;2318993;58;21068;-52
2022/12/02 04:52:05;;;;;;;63.33;28.20;;;5.80;71.80;;;;;;2318090;58;21532;-53
2022/12/02 04:54:32;;;;;;;70.57;28.98;;;5.80;71.80;;;;;;2318823;58;21103;-50
2022/12/02 04:56:59;;;;;;;60.17;26.65;;;5.80;71.90;;;;;;2319098;58;21052;-50
2022/12/02 04:59:26;;;;;;;70.12;28.95;;;5.80;71.90;;;;;;2319082;58;21068;-52
2022/12/02 05:01:54;;;;;;;66.57;26.87;;;5.80;72.00;;;;;;2318573;58;21540;-51
2022/12/02 05:04:21;;;;;;;69.53;28.12;;;5.80;72.00;;;;;;2317615;58;21048;-53
2022/12/02 05:06:48;;;;;;;72.97;29.33;;;5.80;72.00;;;;;;2319339;58;21099;-52
2022/12/02 05:09:15;;;;;;;69.65;26.92;;;5.80;72.10;;;;;;2319343;58;21143;-52
2022/12/02 05:11:42;;;;;;;70.22;28.55;;;5.70;72.00;;;;;;2318939;58;21052;-53
2022/12/02 05:14:09;;;;;;;62.03;24.67;;;5.70;72.10;;;;;;2318598;58;21040;-51
2022/12/02 05:16:36;;;;;;;66.60;27.52;;;5.70;72.20;;;;;;2318982;58;21555;-53
2022/12/02 05:19:04;;;;;;;63.47;26.67;;;5.70;72.20;;;;;;2318287;58;21072;-53
2022/12/02 05:21:31;;;;;;;64.10;28.08;;;5.70;72.30;;;;;;2318499;58;21616;-52
2022/12/02 05:23:58;;;;;;;64.53;29.73;;;5.60;72.30;;;;;;2318489;58;21040;-53
2022/12/02 05:26:25;;;;;;;66.55;28.38;;;5.70;72.50;;;;;;2318672;58;21052;-53
2022/12/02 05:28:52;;;;;;;59.72;25.83;;;5.60;73.50;;;;;;2318245;58;21559;-51
2022/12/02 05:31:19;;;;;;;61.30;27.20;;;5.70;74.20;;;;;;2318541;58;21048;-53
2022/12/02 05:33:46;;;;;;;62.08;27.17;;;5.70;73.60;;;;;;2318375;58;21072;-52
2022/12/02 05:36:13;;;;;;;61.50;27.35;;;5.70;72.90;;;;;;2318293;58;21067;-53
2022/12/02 05:38:41;;;;;;;66.07;27.80;;;5.70;72.60;;;;;;2319228;58;21063;-53
2022/12/02 05:41:08;;;;;;;59.72;26.37;;;5.70;72.40;;;;;;2318870;58;21559;-51
2022/12/02 05:43:38;;;;;;;60.97;25.75;;;5.70;72.40;;;;;;2318510;58;21123;-53
2022/12/02 05:46:13;;;;;;;64.28;26.60;;;5.70;72.30;;;;;;2319170;58;21540;-52
2022/12/02 05:48:41;;;;;;;64.15;27.92;;;5.70;72.30;;;;;;2318904;58;21139;-52
2022/12/02 05:51:12;;;;;;;57.72;24.52;;;5.70;72.20;;;;;;2318568;58;21580;-53
2022/12/02 05:53:41;;;;;;;58.58;24.98;;;5.60;72.20;;;;;;2320150;58;21179;-53
2022/12/02 05:56:12;;;;;;;62.28;27.17;;;5.70;72.40;;;;;;2319470;58;21540;-51
2022/12/02 05:58:40;;;;;;;55.58;24.48;;;5.60;72.50;;;;;;2318643;58;21716;-53
2022/12/02 06:01:20;;;;;;;60.50;24.85;;;5.70;72.50;;;;;;2318571;58;21623;-52
2022/12/02 06:03:48;;;;;;;64.62;26.80;;;5.60;72.50;;;;;;2318776;58;21048;-53
2022/12/02 06:06:16;;;;;;;60.78;25.88;;;5.60;72.50;;;;;;2318908;58;21136;-52
2022/12/02 06:08:43;;;;;;;57.90;24.75;;;5.60;72.50;;;;;;2318186;58;21564;-49
2022/12/02 06:11:25;;;;;;;64.12;27.05;;;5.60;72.70;;;;;;2318543;58;21150;-52
2022/12/02 06:13:52;;;;;;;57.58;23.85;;;5.60;72.70;;;;;;2320299;58;21024;-50
2022/12/02 06:16:23;;;;;;;62.67;26.27;;;5.60;72.70;;;;;;2320282;58;21028;-51
2022/12/02 06:18:50;;;;;;;60.20;25.35;;;5.60;72.80;;;;;;2320090;58;21036;-53
2022/12/02 06:21:20;;;;;;;64.78;27.05;;;5.50;72.70;;;;;;2320138;58;22285;-53
2022/12/02 06:23:50;;;;;;;61.65;25.75;;;5.50;72.80;;;;;;2319018;58;21675;-51
2022/12/02 06:26:20;;;;;;;60.72;24.87;;;5.50;72.90;;;;;;2319281;58;21105;-53
2022/12/02 06:28:50;;;;;;;65.75;25.65;;;5.50;72.90;;;;;;2318798;58;21579;-50
2022/12/02 06:31:20;;;;;;;66.47;26.73;;;5.50;73.00;;;;;;2318665;58;21295;-52
2022/12/02 06:33:49;;;;;;;99.87;29.35;;;5.50;73.00;;;;;;2319046;58;21540;-52
2022/12/02 06:36:20;;;;;;;62.53;26.95;;;5.50;73.10;;;;;;2319162;58;21056;-50
2022/12/02 06:38:50;;;;;;;64.82;25.55;;;5.40;73.10;;;;;;2318375;58;21052;-51
2022/12/02 06:41:21;;;;;;;62.58;25.08;;;5.40;73.20;;;;;;2319112;58;21467;-50
2022/12/02 06:46:36;;;;;;;57.47;23.95;;;5.40;73.40;;;;;;2319051;58;21068;-51
2022/12/02 06:49:14;;;;;;;68.00;27.10;;;5.40;73.40;;;;;;2318910;58;21044;-51
2022/12/02 06:51:42;;;;;;;77.35;26.12;;;5.30;73.50;;;;;;2318953;58;21091;-50
2022/12/02 06:54:15;;;;;;;85.12;26.77;;;5.30;73.60;;;;;;2319039;58;21052;-51
2022/12/02 06:56:42;;;;;;;67.60;26.65;;;5.30;73.70;;;;;;2318133;58;21048;-53
2022/12/02 06:59:13;;;;;;;90.22;26.25;;;5.30;73.70;;;;;;2318271;58;21127;-53
2022/12/02 07:01:42;;;;;;;58.75;24.10;;;5.30;73.80;;;;;;2318918;58;21222;-51
2022/12/02 07:04:31;;;;;;;168.05;32.17;;;5.30;73.80;;;;;;2320132;58;21608;-52
2022/12/02 07:07:01;;;;;;;71.78;25.25;;;5.30;74.00;;;;;;2320471;58;21167;-52
2022/12/02 07:09:36;;;;;;;61.30;25.25;;;5.30;74.00;;;;;;2320511;58;21036;-52
2022/12/02 07:12:09;;;;;;;68.30;25.12;;;5.30;74.10;;;;;;2320366;58;21608;-53
2022/12/02 07:17:22;;;;;;;58.75;24.30;;;5.30;74.10;;;;;;2355012;57;22356;-48
2022/12/02 07:19:57;;;;;;;57.95;23.15;;;5.30;74.20;;;;;;2347212;57;21030;-49
2022/12/02 07:22:33;;;;;;;63.70;24.00;;;5.30;74.30;;;;;;2347318;57;21041;-49
2022/12/02 07:25:28;;;;;;;60.80;25.02;;;5.30;74.30;;;;;;2346710;57;21106;-49
2022/12/02 07:27:55;;;;;;;58.25;23.50;;;5.30;74.30;;;;;;2345640;57;21562;-50
2022/12/02 07:30:26;;;;;;;53.20;24.10;;;5.30;74.50;;;;;;2344433;57;21133;-47
2022/12/02 07:32:54;;;;;;;61.08;24.87;;;5.30;74.50;;;;;;2343645;57;21585;-49
2022/12/02 07:35:21;;;;;;;62.25;25.15;;;5.30;74.50;;;;;;2343293;57;21345;-48
2022/12/02 07:37:48;;;;;;;63.40;25.25;;;5.30;74.50;;;;;;2344962;57;21093;-47
2022/12/02 07:40:17;;;;;;;58.97;23.70;;;5.30;74.60;;;;;;2343473;57;21153;-47
2022/12/02 07:42:44;;;;;;;66.97;25.55;;;5.30;74.50;;;;;;2345013;57;21534;-46
2022/12/02 07:47:49;;;;;;;57.88;24.52;;;5.30;74.50;;;;;;2353904;57;22657;-46
2022/12/02 07:50:16;;;;;;;66.95;26.15;;;5.30;74.50;;;;;;2345239;57;21034;-51
2022/12/02 07:52:43;;;;;;;65.57;25.35;;;5.30;74.60;;;;;;2346506;57;21525;-48
2022/12/02 07:55:11;;;;;;;63.13;25.45;;;5.30;75.40;;;;;;2355349;56;21060;-48
2022/12/02 07:57:38;;;;;;;108.55;32.60;;;5.30;74.60;;;;;;2373663;56;21127;-48
2022/12/02 08:00:08;;;;;;;61.33;25.85;;;5.40;74.60;;;;;;2373453;56;21600;-47
2022/12/02 08:02:35;;;;;;;73.22;27.42;;;5.30;74.50;;;;;;2374400;56;21520;-47
2022/12/02 08:05:03;;;;;;;66.45;28.25;;;5.30;74.50;;;;;;2375811;56;21078;-49
2022/12/02 08:07:30;;;;;;;61.83;24.67;;;5.40;74.50;;;;;;2374374;56;21139;-49
2022/12/02 08:09:57;;;;;;;74.03;27.95;;;5.40;74.60;;;;;;2372891;56;21035;-49
2022/12/02 08:12:24;;;;;;;68.20;27.75;;;5.40;74.50;;;;;;2371156;56;21106;-47
2022/12/02 08:14:51;;;;;;;66.20;25.95;;;5.40;74.50;;;;;;2372047;56;21091;-52
2022/12/02 08:17:18;;;;;;;73.43;28.65;;;5.40;74.50;;;;;;2370214;56;21032;-48
2022/12/02 08:19:46;;;;;;;65.50;27.13;;;5.40;74.50;;;;;;2372664;56;21039;-56
2022/12/02 08:22:13;;;;;;;67.50;26.95;;;5.40;74.60;;;;;;2371477;56;21063;-49
2022/12/02 08:24:40;;;;;;;74.10;29.87;;;5.40;74.60;;;;;;2372116;56;21119;-50
2022/12/02 08:27:07;;;;;;;87.70;38.67;;;5.40;74.50;;;;;;2369659;56;21634;-47
2022/12/02 08:29:34;;;;;;;71.22;30.92;;;5.40;74.50;;;;;;2371211;56;21123;-48
2022/12/02 08:32:04;;;;;;;67.03;28.30;;;5.40;74.50;;;;;;2373189;56;21044;-47
2022/12/02 08:34:31;;;;;;;71.57;28.77;;;5.40;74.50;;;;;;2372998;56;21139;-48
2022/12/02 08:36:58;;;;;;;69.45;28.00;;;5.40;74.50;;;;;;2373602;56;21056;-48
2022/12/02 08:39:25;;;;;;;62.95;26.52;;;5.40;74.50;;;;;;2373039;56;21036;-47
2022/12/02 08:41:53;;;;;;;63.75;26.87;;;5.40;74.50;;;;;;2374262;56;21055;-47
2022/12/02 08:44:20;;;;;;;72.72;28.08;;;5.40;74.50;;;;;;2374053;56;21524;-48
2022/12/02 08:46:47;;;;;;;73.43;29.17;;;5.40;74.60;;;;;;2373277;56;21148;-49
2022/12/02 08:49:14;;;;;;;61.50;25.80;;;5.40;74.60;;;;;;2372480;56;21519;-48
2022/12/02 08:51:41;;;;;;;68.68;27.65;;;5.40;74.60;;;;;;2374013;56;21044;-46
2022/12/02 08:54:08;;;;;;;69.43;27.70;;;5.40;74.60;;;;;;2373266;56;21974;-47
2022/12/02 08:56:36;;;;;;;72.97;27.40;;;5.50;74.60;;;;;;2373173;56;21040;-47
2022/12/02 08:59:03;;;;;;;60.58;26.48;;;5.50;74.60;;;;;;2372836;56;21052;-47
2022/12/02 09:01:30;;;;;;;69.00;27.10;;;5.50;74.60;;;;;;2372590;56;21052;-48
2022/12/02 09:03:57;;;;;;;58.80;25.48;;;5.50;74.60;;;;;;2372806;56;21571;-50
2022/12/02 09:06:25;;;;;;;69.47;27.30;;;5.50;74.60;;;;;;2372744;56;21808;-47
2022/12/02 09:08:52;;;;;;;67.05;26.77;;;5.50;74.50;;;;;;2372363;56;21032;-50
2022/12/02 09:11:20;;;;;;;72.70;28.40;;;5.50;74.40;;;;;;2371936;56;21052;-47
2022/12/02 09:13:47;;;;;;;71.87;26.33;;;5.50;74.30;;;;;;2372200;56;21604;-47
2022/12/02 09:16:14;;;;;;;70.37;28.25;;;5.50;74.20;;;;;;2372549;56;21079;-48
2022/12/02 09:18:42;;;;;;;68.15;26.35;;;5.50;74.20;;;;;;2372881;56;21051;-48
2022/12/02 09:21:09;;;;;;;67.00;27.65;;;5.50;74.20;;;;;;2373015;56;21996;-47
2022/12/02 09:23:36;;;;;;;71.68;28.65;;;5.40;74.10;;;;;;2373687;56;21036;-48
2022/12/02 09:26:03;;;;;;;70.80;26.70;;;5.40;74.10;;;;;;2372654;56;21535;-50
2022/12/02 09:28:30;;;;;;;67.32;27.65;;;5.40;74.10;;;;;;2372094;56;21055;-51
2022/12/02 09:30:57;;;;;;;74.40;29.25;;;5.40;74.00;;;;;;2371959;56;21089;-47
2022/12/02 09:33:24;;;;;;;64.70;27.48;;;5.40;74.10;;;;;;2372290;56;21044;-49
2022/12/02 09:35:51;;;;;;;66.00;28.38;;;5.40;74.10;;;;;;2372713;56;22100;-48
2022/12/02 09:38:18;;;;;;;71.00;28.23;;;5.40;74.10;;;;;;2372169;56;21036;-48
2022/12/02 09:40:46;;;;;;;75.57;28.73;;;5.40;74.20;;;;;;2372361;56;21535;-48
2022/12/02 09:43:13;;;;;;;69.70;29.30;;;5.40;74.40;;;;;;2372801;56;21600;-47
2022/12/02 09:45:41;;;;;;;69.45;26.20;;;5.40;74.30;;;;;;2372220;56;21119;-48
2022/12/02 09:48:08;;;;;;;75.37;29.50;;;5.40;74.40;;;;;;2372214;56;21556;-47
2022/12/02 09:50:37;;;;;;;67.22;28.20;;;5.40;74.40;;;;;;2372296;56;21056;-49
2022/12/02 09:53:06;;;;;;;68.87;28.95;;;5.40;74.40;;;;;;2371765;56;21123;-47
2022/12/02 09:55:35;;;;;;;70.28;28.77;;;5.40;74.50;;;;;;2372786;56;21048;-48
2022/12/02 09:58:11;;;;;;;72.00;27.65;;;5.40;74.40;;;;;;2372524;56;21535;-49
2022/12/02 10:00:38;;;;;;;73.30;28.20;;;5.40;74.50;;;;;;2372903;56;21539;-48
2022/12/02 10:03:07;;;;;;;79.68;29.83;;;5.40;74.40;;;;;;2372514;56;21060;-48
2022/12/02 10:05:35;;;;;;;65.75;27.20;;;5.40;74.50;;;;;;2372445;56;21683;-48
2022/12/02 10:08:11;;;;;;;82.10;31.08;;;5.40;74.60;;;;;;2373292;56;21623;-48
2022/12/02 10:10:41;;;;;;;67.37;26.83;;;5.40;74.60;;;;;;2373325;56;21047;-47
2022/12/02 10:13:12;;;;;;;75.25;28.48;;;5.40;74.50;;;;;;2373022;56;21052;-47
2022/12/02 10:15:40;;;;;;;71.43;28.33;;;5.40;74.60;;;;;;2373397;56;21040;-50
2022/12/02 10:18:12;;;;;;;74.40;30.15;;;5.40;74.60;;;;;;2373024;56;21519;-48
2022/12/02 10:20:39;;;;;;;73.62;28.77;;;5.40;74.70;;;;;;2371543;56;21135;-48
2022/12/02 10:23:10;;;;;;;71.78;29.42;;;5.40;74.70;;;;;;2372118;56;21611;-51
2022/12/02 10:25:40;;;;;;;75.62;26.52;;;5.40;74.80;;;;;;2373582;56;21102;-48
2022/12/02 10:28:22;;;;;;;68.15;26.67;;;5.40;74.90;;;;;;2373606;56;21552;-47
2022/12/02 10:30:52;;;;;;;81.32;29.60;;;5.50;75.10;;;;;;2371739;56;21548;-48
2022/12/02 10:33:24;;;;;;;74.47;28.62;;;5.40;75.00;;;;;;2372950;56;21592;-48
2022/12/02 10:35:53;;;;;;;66.62;26.92;;;5.50;75.10;;;;;;2371811;56;21144;-47
2022/12/02 10:38:32;;;;;;;73.47;29.63;;;5.50;75.10;;;;;;2373459;56;21028;-47
2022/12/02 10:44:14;;;;;;;76.22;28.33;;;5.50;75.10;;;;;;2355021;57;22082;-49
2022/12/02 10:46:42;;;;;;;73.22;30.90;;;5.50;74.80;;;;;;2344709;57;21515;-48
2022/12/02 10:49:25;;;;;;;69.32;28.55;;;5.50;74.70;;;;;;2342633;57;21514;-48
2022/12/02 10:51:52;;;;;;;;;;;5.50;74.80;;;;;;2347260;57;21598;-47
2022/12/02 10:54:24;;;;;;;74.65;26.70;;;5.60;74.80;;;;;;2344779;57;20334;-47
2022/12/02 10:56:52;;;;;;;74.30;28.02;;;5.60;74.40;;;;;;2344808;57;21130;-50
2022/12/02 10:59:19;;;;;;;77.32;30.17;;;5.50;74.50;;;;;;2345103;57;21538;-50
2022/12/02 11:01:46;;;;;;;80.72;29.83;;;5.50;74.60;;;;;;2345380;57;21538;-49
2022/12/02 11:04:15;;;;;;;81.03;29.92;;;5.50;74.70;;;;;;2346118;57;21058;-48
2022/12/02 11:06:44;;;;;;;79.93;30.35;;;5.50;74.70;;;;;;2345871;57;21038;-50
2022/12/02 11:09:18;;;;;;;71.57;28.42;;;5.50;74.70;;;;;;2346239;57;21060;-48
2022/12/02 11:11:45;;;;;;;76.22;29.67;;;5.50;74.80;;;;;;2345912;57;21054;-49
2022/12/02 11:14:14;;;;;;;70.53;29.40;;;5.50;74.80;;;;;;2345120;57;21612;-48
2022/12/02 11:17:03;;;;;;;79.70;29.70;;;5.50;74.90;;;;;;2342495;57;21113;-48
2022/12/02 11:19:45;;;;;;;73.60;28.33;;;5.50;74.90;;;;;;2345480;57;21593;-47
2022/12/02 11:23:03;;;;;;;67.55;25.77;;;5.60;74.80;;;;;;2345170;57;21046;-48
2022/12/02 11:25:58;;;;;;;72.30;27.62;;;5.60;74.80;;;;;;2345677;57;22112;-49
2022/12/02 11:28:46;;;;;;;72.97;26.83;;;5.50;74.70;;;;;;2345914;57;21101;-52
2022/12/02 11:31:22;;;;;;;72.05;28.95;;;5.50;74.80;;;;;;2345214;57;21596;-48
2022/12/02 11:34:23;;;;;;;76.07;27.40;;;5.50;75.00;;;;;;2346464;57;21033;-51
2022/12/02 11:37:27;;;;;;;66.10;26.17;;;5.50;75.10;;;;;;2347040;57;21152;-47
2022/12/02 11:39:57;;;;;;;68.00;26.20;;;5.60;75.30;;;;;;2346822;57;21133;-49
2022/12/02 11:42:26;;;;;;;68.32;26.90;;;5.60;75.20;;;;;;2345114;57;21073;-47
2022/12/02 11:45:09;;;;;;;65.30;24.80;;;5.60;75.20;;;;;;2345237;57;21518;-47
2022/12/02 11:47:36;;;;;;;66.15;26.20;;;5.60;75.20;;;;;;2345998;57;21594;-49
2022/12/02 11:50:22;;;;;;;66.28;27.08;;;5.70;75.30;;;;;;2345304;57;22172;-48
2022/12/02 11:52:52;;;;;;;74.53;26.73;;;5.70;75.30;;;;;;2344671;57;21097;-51
2022/12/02 11:55:22;;;;;;;63.58;27.17;;;5.70;75.10;;;;;;2342410;57;22112;-47
2022/12/02 11:57:51;;;;;;;65.07;25.52;;;5.70;75.10;;;;;;2343980;57;21046;-50
2022/12/02 12:00:26;;;;;;;67.53;27.62;;;5.70;75.00;;;;;;2344624;57;21670;-49
2022/12/02 12:03:13;;;;;;;66.55;27.73;;;5.70;74.80;;;;;;2344766;57;21086;-46
2022/12/02 12:05:41;;;;;;;75.25;28.87;;;5.70;74.80;;;;;;2343897;57;21045;-46
2022/12/02 12:08:09;;;;;;;67.00;26.92;;;5.70;74.70;;;;;;2342894;57;21680;-49
2022/12/02 12:10:38;;;;;;;65.50;26.80;;;5.70;74.80;;;;;;2341947;57;21519;-50
2022/12/02 12:13:15;;;;;;;66.12;26.95;;;5.70;74.90;;;;;;2342069;57;21601;-50
2022/12/02 12:15:54;;;;;;;60.58;25.40;;;5.60;74.80;;;;;;2342806;57;21050;-48
2022/12/02 12:18:44;;;;;;;65.80;26.40;;;5.60;74.80;;;;;;2340293;57;21601;-48
2022/12/02 12:21:12;;;;;;;58.67;24.73;;;5.60;74.90;;;;;;2340948;57;21118;-51
2022/12/02 12:23:41;;;;;;;73.87;28.83;;;5.70;74.90;;;;;;2345046;57;21593;-49
2022/12/02 12:26:29;;;;;;;64.03;25.80;;;5.60;74.80;;;;;;2344252;57;21577;-47
2022/12/02 12:29:00;;;;;;;67.53;24.30;;;5.60;74.70;;;;;;2344854;57;21002;-48
2022/12/02 12:31:27;;;;;;;68.57;27.37;;;5.70;74.70;;;;;;2343989;57;21125;-49
2022/12/02 12:33:54;;;;;;;63.03;26.60;;;5.70;74.70;;;;;;2343126;57;21109;-48
2022/12/02 12:36:21;;;;;;;70.05;26.55;;;5.70;74.70;;;;;;2344246;57;21126;-47
2022/12/02 12:38:48;;;;;;;66.10;26.65;;;5.70;74.70;;;;;;2344000;57;21120;-47
2022/12/02 12:41:15;;;;;;;77.18;28.65;;;5.70;74.60;;;;;;2343819;57;21614;-47
2022/12/02 12:43:42;;;;;;;66.32;25.98;;;5.70;74.40;;;;;;2343482;57;21073;-49
2022/12/02 12:46:10;;;;;;;67.70;25.30;;;5.60;74.30;;;;;;2343939;57;21554;-47
2022/12/02 12:48:37;;;;;;;64.25;25.62;;;5.60;74.30;;;;;;2344656;57;21395;-48
2022/12/02 12:51:04;;;;;;;68.62;26.80;;;5.60;74.40;;;;;;2344534;57;21113;-50
2022/12/02 12:53:31;;;;;;;63.28;25.23;;;5.60;74.40;;;;;;2344684;57;21110;-48
2022/12/02 12:55:59;;;;;;;70.05;25.45;;;5.60;74.30;;;;;;2344538;57;21037;-47
2022/12/02 12:58:26;;;;;;;65.80;25.95;;;5.60;74.30;;;;;;2343614;57;21141;-48
2022/12/02 13:00:53;;;;;;;71.47;27.13;;;5.60;74.40;;;;;;2344118;57;21050;-48
2022/12/02 13:03:21;;;;;;;68.80;26.25;;;5.50;74.30;;;;;;2343821;57;21585;-47